createdAt,value
2022-11-25T00:02:15.159Z,99783.50
2022-11-25T00:07:19.869Z,99793.03
2022-11-25T00:12:22.968Z,99793.50
2022-11-25T00:17:26.338Z,99789.91
2022-11-25T00:22:31.025Z,99794.31
2022-11-25T00:27:34.047Z,99786.50
2022-11-25T00:32:37.359Z,99793.13
2022-11-25T00:37:41.919Z,99796.19
2022-11-25T00:43:02.647Z,99794.31
2022-11-25T00:48:06.497Z,99801.94
2022-11-25T00:53:11.388Z,99803.25
2022-11-25T00:58:14.561Z,99810.97
2022-11-25T01:03:18.070Z,99817.22
2022-11-25T01:08:22.844Z,99816.25
2022-11-25T01:13:26.159Z,99818.00
2022-11-25T01:18:29.991Z,99816.34
2022-11-25T01:23:34.778Z,99808.69
2022-11-25T01:28:37.812Z,99817.50
2022-11-25T01:33:41.472Z,99817.66
2022-11-25T01:38:50.386Z,99820.56
2022-11-25T01:44:08.341Z,99817.22
2022-11-25T01:49:17.162Z,99826.06
2022-11-25T01:54:25.581Z,99829.59
2022-11-25T01:59:30.945Z,99848.75
2022-11-25T02:04:37.232Z,99843.94
2022-11-25T02:09:44.972Z,99847.78
2022-11-25T02:14:49.854Z,99858.84
2022-11-25T02:20:00.738Z,99858.75
2022-11-25T02:25:12.653Z,99856.88
2022-11-25T02:30:16.238Z,99859.53
2022-11-25T02:35:31.996Z,99857.47
2022-11-25T02:40:42.141Z,99859.31
2022-11-25T02:45:52.034Z,99861.25
2022-11-25T02:50:55.395Z,99853.56
2022-11-25T02:56:00.812Z,99854.34
2022-11-25T03:01:04.210Z,99858.66
2022-11-25T03:06:07.967Z,99860.22
2022-11-25T03:11:12.873Z,99871.25
2022-11-25T03:16:16.255Z,99880.25
2022-11-25T03:21:19.544Z,99882.41
2022-11-25T03:26:26.218Z,99879.16
2022-11-25T03:31:29.654Z,99888.34
2022-11-25T03:36:32.970Z,99887.66
2022-11-25T03:41:37.511Z,99901.50
2022-11-25T03:46:40.827Z,99909.91
2022-11-25T03:51:44.193Z,99920.78
2022-11-25T03:56:48.787Z,99919.47
2022-11-25T04:01:52.024Z,99937.34
2022-11-25T04:06:55.209Z,99942.16
2022-11-25T04:12:17.090Z,99939.78
2022-11-25T04:17:20.468Z,99931.41
2022-11-25T04:22:23.648Z,99937.75
2022-11-25T04:27:28.323Z,99919.00
2022-11-25T04:32:31.379Z,99930.63
2022-11-25T04:37:34.561Z,99937.66
2022-11-25T04:42:39.852Z,99933.19
2022-11-25T04:47:43.754Z,99945.16
2022-11-25T04:52:46.950Z,99955.72
2022-11-25T04:57:51.706Z,99955.72
2022-11-25T05:02:55.252Z,99962.25
2022-11-25T05:07:58.548Z,99974.97
2022-11-25T05:13:03.211Z,99975.94
2022-11-25T05:18:06.161Z,99966.19
2022-11-25T05:23:09.505Z,99967.53
2022-11-25T05:28:14.178Z,99963.34
2022-11-25T05:33:17.141Z,99976.53
2022-11-25T05:38:20.348Z,99971.06
2022-11-25T05:43:25.103Z,99961.50
2022-11-25T05:48:27.977Z,99972.03
2022-11-25T05:53:31.775Z,99972.81
2022-11-25T05:58:36.307Z,99987.09
2022-11-25T06:03:39.961Z,99977.22
2022-11-25T06:08:43.297Z,99987.88
2022-11-25T06:13:47.915Z,99990.50
2022-11-25T06:18:51.033Z,99982.41
2022-11-25T06:23:54.269Z,99984.84
2022-11-25T06:28:58.961Z,99989.72
2022-11-25T06:34:02.037Z,99992.75
2022-11-25T06:39:05.328Z,99999.59
2022-11-25T06:44:09.861Z,100009.38
2022-11-25T06:49:13.065Z,100011.31
2022-11-25T06:54:16.384Z,100015.91
2022-11-25T06:59:21.392Z,100030.66
2022-11-25T07:04:24.759Z,100031.91
2022-11-25T07:09:29.363Z,100029.81
2022-11-25T07:14:34.291Z,100035.84
2022-11-25T07:19:38.324Z,100037.72
2022-11-25T07:24:41.542Z,100041.94
2022-11-25T07:30:18.785Z,100036.13
2022-11-25T07:35:09.737Z,100045.00
2022-11-25T07:40:14.333Z,100049.81
2022-11-25T07:45:18.982Z,100045.19
2022-11-25T07:50:22.499Z,100055.75
2022-11-25T07:55:25.789Z,100061.50
2022-11-25T08:00:30.497Z,100065.06
2022-11-25T08:05:34.796Z,100067.53
2022-11-25T08:10:41.284Z,100073.84
2022-11-25T08:15:46.195Z,100079.22
2022-11-25T08:20:49.443Z,100073.03
2022-11-25T08:25:52.629Z,100086.44
2022-11-25T08:31:03.400Z,100078.78
2022-11-25T08:36:07.697Z,100080.16
2022-11-25T08:41:13.421Z,100083.00
2022-11-25T08:46:21.444Z,100072.88
2022-11-25T08:51:26.901Z,100080.47
2022-11-25T08:56:30.464Z,100080.56
2022-11-25T09:01:35.106Z,100083.88
2022-11-25T09:06:39.980Z,100086.50
2022-11-25T09:11:43.623Z,100084.19
2022-11-25T09:16:48.382Z,100090.13
2022-11-25T09:21:51.451Z,100097.59
2022-11-25T09:26:54.985Z,100101.44
2022-11-25T09:31:59.816Z,100096.06
2022-11-25T09:37:03.208Z,100093.63
2022-11-25T09:42:42.231Z,100095.47
2022-11-25T09:47:57.812Z,100082.81
2022-11-25T09:53:12.750Z,100098.28
2022-11-25T09:58:27.093Z,100098.59
2022-11-25T10:03:37.973Z,100094.72
2022-11-25T10:08:45.014Z,100098.47
2022-11-25T10:13:56.199Z,100105.31
2022-11-25T10:19:06.663Z,100104.59
2022-11-25T10:24:14.716Z,100119.28
2022-11-25T10:29:24.801Z,100114.09
2022-11-25T10:34:37.125Z,100112.34
2022-11-25T10:39:41.271Z,100127.06
2022-11-25T10:44:44.441Z,100121.88
2022-11-25T10:50:01.339Z,100130.44
2022-11-25T10:55:14.649Z,100131.47
2022-11-25T11:00:36.467Z,100126.75
2022-11-25T11:05:47.100Z,100122.03
2022-11-25T11:11:14.393Z,100133.25
2022-11-25T11:16:30.870Z,100133.22
2022-11-25T11:21:37.842Z,100149.66
2022-11-25T11:26:41.148Z,100159.81
2022-11-25T11:31:49.808Z,100163.91
2022-11-25T11:37:16.482Z,100159.06
2022-11-25T11:42:31.127Z,100163.44
2022-11-25T11:47:42.405Z,100157.19
2022-11-25T11:52:56.204Z,100167.06
2022-11-25T11:58:06.829Z,100169.38
2022-11-25T12:03:15.896Z,100158.06
2022-11-25T12:08:29.330Z,100165.78
2022-11-25T12:13:41.754Z,100172.94
2022-11-25T12:18:51.351Z,100170.09
2022-11-25T12:24:04.344Z,100167.34
2022-11-25T12:29:12.561Z,100160.69
2022-11-25T12:34:27.741Z,100172.53
2022-11-25T12:39:41.068Z,100198.97
2022-11-25T12:44:56.373Z,100202.69
2022-11-25T12:50:00.625Z,100204.44
2022-11-25T12:55:16.509Z,100205.09
2022-11-25T13:00:40.985Z,100214.97
2022-11-25T13:06:06.057Z,100211.75
2022-11-25T13:11:39.949Z,100207.66
2022-11-25T13:16:47.253Z,100218.25
2022-11-25T13:22:02.636Z,100227.44
2022-11-25T13:27:27.610Z,100225.59
2022-11-25T13:32:35.725Z,100220.44
2022-11-25T13:37:41.985Z,100235.19
2022-11-25T13:42:46.866Z,100235.53
2022-11-25T13:47:51.612Z,100245.41
2022-11-25T13:52:59.831Z,100226.75
2022-11-25T13:58:20.905Z,100237.25
2022-11-25T14:03:50.552Z,100241.94
2022-11-25T14:08:57.399Z,100249.34
2022-11-25T14:14:30.676Z,100247.44
2022-11-25T14:20:13.618Z,100254.34
2022-11-25T14:25:22.551Z,100262.00
2022-11-25T14:30:29.951Z,100258.97
2022-11-25T14:35:44.873Z,100261.81
2022-11-25T14:40:55.465Z,100264.75
2022-11-25T14:46:15.731Z,100270.34
2022-11-25T14:51:19.586Z,100271.50
2022-11-25T14:56:30.646Z,100263.53
2022-11-25T15:01:37.129Z,100265.06
2022-11-25T15:06:43.008Z,100272.06
2022-11-25T15:11:46.668Z,100281.38
2022-11-25T15:16:51.768Z,100267.25
2022-11-25T15:22:23.219Z,100279.59
2022-11-25T15:27:25.926Z,100287.63
2022-11-25T15:32:32.918Z,100292.19
2022-11-25T15:37:36.205Z,100298.47
2022-11-25T15:42:39.418Z,100296.28
2022-11-25T15:47:46.295Z,100287.97
2022-11-25T15:52:52.824Z,100285.59
2022-11-25T15:57:59.591Z,100286.09
2022-11-25T16:03:05.019Z,100300.75
2022-11-25T16:08:29.077Z,100302.25
2022-11-25T16:13:35.792Z,100285.41
2022-11-25T16:18:43.914Z,100304.69
2022-11-25T16:23:51.194Z,100304.03
2022-11-25T16:28:57.253Z,100301.97
2022-11-25T16:34:11.048Z,100307.66
2022-11-25T16:39:15.145Z,100312.31
2022-11-25T16:44:21.522Z,100316.72
2022-11-25T16:49:26.895Z,100317.81
2022-11-25T16:54:31.767Z,100324.66
2022-11-25T16:59:41.198Z,100322.09
2022-11-25T17:04:46.134Z,100323.84
2022-11-25T17:09:49.866Z,100326.28
2022-11-25T17:14:55.680Z,100321.59
2022-11-25T17:20:00.642Z,100318.22
2022-11-25T17:25:04.633Z,100317.91
2022-11-25T17:30:15.826Z,100322.25
2022-11-25T17:35:22.149Z,100327.94
2022-11-25T17:40:25.676Z,100336.44
2022-11-25T17:45:29.733Z,100330.38
2022-11-25T17:50:36.235Z,100342.53
2022-11-25T17:55:42.006Z,100345.28
2022-11-25T18:00:45.718Z,100336.03
2022-11-25T18:05:50.855Z,100339.63
2022-11-25T18:10:54.379Z,100339.19
2022-11-25T18:15:57.730Z,100339.09
2022-11-25T18:21:02.529Z,100338.34
2022-11-25T18:26:07.655Z,100341.56
2022-11-25T18:31:13.352Z,100338.03
2022-11-25T18:36:19.300Z,100345.22
2022-11-25T18:41:23.423Z,100351.16
2022-11-25T18:46:26.957Z,100347.66
2022-11-25T18:51:31.813Z,100347.53
2022-11-25T18:56:36.205Z,100352.50
2022-11-25T19:01:39.880Z,100357.78
2022-11-25T19:06:44.727Z,100347.19
2022-11-25T19:11:50.867Z,100354.56
2022-11-25T19:16:54.974Z,100366.72
2022-11-25T19:22:02.359Z,100372.13
2022-11-25T19:27:06.137Z,100380.22
2022-11-25T19:32:18.685Z,100382.75
2022-11-25T19:37:24.206Z,100383.28
2022-11-25T19:42:28.664Z,100386.69
2022-11-25T19:47:32.249Z,100387.91
2022-11-25T19:52:40.032Z,100392.41
2022-11-25T19:57:44.515Z,100398.28
2022-11-25T20:02:50.216Z,100396.50
2022-11-25T20:07:55.177Z,100405.41
2022-11-25T20:12:59.394Z,100403.13
2022-11-25T20:18:02.818Z,100407.53
2022-11-25T20:23:13.541Z,100400.72
2022-11-25T20:28:18.711Z,100398.75
2022-11-25T20:33:24.857Z,100408.25
2022-11-25T20:38:32.752Z,100413.03
2022-11-25T20:43:38.984Z,100402.44
2022-11-25T20:48:42.627Z,100389.34
2022-11-25T20:53:49.850Z,100413.75
2022-11-25T20:58:53.285Z,100419.28
2022-11-25T21:03:56.589Z,100436.94
2022-11-25T21:09:02.748Z,100433.97
2022-11-25T21:14:13.424Z,100446.34
2022-11-25T21:19:16.789Z,100449.38
2022-11-25T21:24:31.658Z,100445.09
2022-11-25T21:29:34.748Z,100444.88
2022-11-25T21:34:38.341Z,100430.88
2022-11-25T21:39:43.712Z,100443.44
2022-11-25T21:44:48.071Z,100443.69
2022-11-25T21:49:52.267Z,100444.22
2022-11-25T21:54:56.914Z,100447.97
2022-11-25T22:00:00.435Z,100457.34
2022-11-25T22:05:03.646Z,100456.47
2022-11-25T22:10:10.365Z,100464.88
2022-11-25T22:15:17.472Z,100464.88
2022-11-25T22:20:29.604Z,100466.31
2022-11-25T22:25:34.673Z,100469.72
2022-11-25T22:30:37.974Z,100467.91
2022-11-25T22:35:41.669Z,100464.19
2022-11-25T22:40:51.693Z,100453.84
2022-11-25T22:45:55.268Z,100464.44
2022-11-25T22:50:58.542Z,100460.22
2022-11-25T22:56:03.081Z,100461.19
2022-11-25T23:01:06.677Z,100453.94
2022-11-25T23:06:11.968Z,100450.97
2022-11-25T23:11:21.217Z,100427.41
2022-11-25T23:16:24.479Z,100452.03
2022-11-25T23:21:29.433Z,100454.72
2022-11-25T23:26:35.285Z,100466.84
2022-11-25T23:31:40.030Z,100459.47
2022-11-25T23:36:44.832Z,100455.34
2022-11-25T23:41:50.429Z,100469.06
2022-11-25T23:46:55.326Z,100467.94
2022-11-25T23:52:07.258Z,100464.53
2022-11-25T23:57:16.149Z,100463.31
